Main page
METAR-TAF:

METAR-TAF

Airports :

Chita, Russia

Kadala Airport

latitude: 52-05N, longitude: 113-29E, elevation: 685 m

Current weather observation

The report was made 31 minutes ago, at 16:00 UTC
Wind 4 kt from the North/Northeast
Temperature -25°C
Humidity 69%
Pressure 1012 hPa
Visibility: 9000 m

METAR: UIAA 241600Z 02002MPS 9000 NSC M25/M29 Q1012 R29/70D NOSIG RMK QFE701/0934

Time: 01:31 (16:31 UTC)

Forecast

The report was made 2 hours and 31 minutes ago, at 14:00 UTC
Forecast valid from 24 at 15 UTC to 25 at 15 UTC
Wind 6 kt from the North/Northwest
Visibility: 3100 m
Scattered clouds at a height of 300 ft
mist, smoke

TAF: UIAA 241400Z 2415/2515 33003MPS 3100 BR FU SCT003

Weather observations and forecasts of more than 4000 airports (METAR and TAF reports).

The available stations are represented by yellow and red dots on the map.

Hover mouse over dot to see the name of the station.

Then click to see weather observations and forecasts.

To change the map : click on the green buttons with a black cross to zoom in, on the green button with a dash to zoom out, or on the green arrows for adjacent maps.


METAR-TAF: